sensor_id;sensor_type;location;lat;lon;timestamp;P1;durP1;ratioP1;P2;durP2;ratioP2
75616;SDS011;64200;55.426;37.758;2023-05-15T00:00:29;7.25;;;5.20;;
75616;SDS011;64200;55.426;37.758;2023-05-15T00:05:31;11.25;;;4.60;;
75616;SDS011;64200;55.426;37.758;2023-05-15T00:10:32;8.98;;;5.32;;
75616;SDS011;64200;55.426;37.758;2023-05-15T00:15:32;7.28;;;5.43;;
75616;SDS011;64200;55.426;37.758;2023-05-15T00:20:33;12.02;;;5.63;;
75616;SDS011;64200;55.426;37.758;2023-05-15T00:25:34;9.63;;;5.40;;
75616;SDS011;64200;55.426;37.758;2023-05-15T00:30:34;11.48;;;5.75;;
75616;SDS011;64200;55.426;37.758;2023-05-15T00:35:35;10.33;;;4.67;;
75616;SDS011;64200;55.426;37.758;2023-05-15T00:40:35;8.93;;;5.60;;
75616;SDS011;64200;55.426;37.758;2023-05-15T00:45:37;9.55;;;5.40;;
75616;SDS011;64200;55.426;37.758;2023-05-15T00:50:39;11.07;;;5.70;;
75616;SDS011;64200;55.426;37.758;2023-05-15T00:55:41;10.80;;;6.03;;
75616;SDS011;64200;55.426;37.758;2023-05-15T01:00:42;14.38;;;7.40;;
75616;SDS011;64200;55.426;37.758;2023-05-15T01:05:44;12.13;;;7.63;;
75616;SDS011;64200;55.426;37.758;2023-05-15T01:10:45;12.48;;;7.45;;
75616;SDS011;64200;55.426;37.758;2023-05-15T01:15:48;16.20;;;7.38;;
75616;SDS011;64200;55.426;37.758;2023-05-15T01:26:51;19.15;;;8.90;;
75616;SDS011;64200;55.426;37.758;2023-05-15T01:32:16;14.07;;;8.82;;
75616;SDS011;64200;55.426;37.758;2023-05-15T01:37:21;20.02;;;10.90;;
75616;SDS011;64200;55.426;37.758;2023-05-15T01:42:26;18.17;;;9.05;;
75616;SDS011;64200;55.426;37.758;2023-05-15T01:47:34;16.75;;;8.35;;
75616;SDS011;64200;55.426;37.758;2023-05-15T01:52:39;19.58;;;8.93;;
75616;SDS011;64200;55.426;37.758;2023-05-15T01:57:43;17.75;;;8.88;;
75616;SDS011;64200;55.426;37.758;2023-05-15T02:02:47;13.38;;;8.75;;
75616;SDS011;64200;55.426;37.758;2023-05-15T02:07:49;15.15;;;8.27;;
75616;SDS011;64200;55.426;37.758;2023-05-15T02:12:50;12.95;;;7.65;;
75616;SDS011;64200;55.426;37.758;2023-05-15T02:17:52;13.25;;;7.15;;
75616;SDS011;64200;55.426;37.758;2023-05-15T02:22:52;16.42;;;7.85;;
75616;SDS011;64200;55.426;37.758;2023-05-15T02:27:55;12.05;;;7.55;;
75616;SDS011;64200;55.426;37.758;2023-05-15T02:33:06;13.02;;;7.47;;
75616;SDS011;64200;55.426;37.758;2023-05-15T02:38:16;11.95;;;7.47;;
75616;SDS011;64200;55.426;37.758;2023-05-15T02:43:19;16.90;;;8.18;;
75616;SDS011;64200;55.426;37.758;2023-05-15T02:48:21;14.18;;;6.68;;
75616;SDS011;64200;55.426;37.758;2023-05-15T02:53:22;12.85;;;6.95;;
75616;SDS011;64200;55.426;37.758;2023-05-15T02:58:22;13.52;;;7.43;;
75616;SDS011;64200;55.426;37.758;2023-05-15T03:03:23;16.48;;;7.78;;
75616;SDS011;64200;55.426;37.758;2023-05-15T03:08:24;12.17;;;7.73;;
75616;SDS011;64200;55.426;37.758;2023-05-15T03:13:24;11.77;;;7.13;;
75616;SDS011;64200;55.426;37.758;2023-05-15T03:18:25;11.27;;;7.07;;
75616;SDS011;64200;55.426;37.758;2023-05-15T03:23:25;13.73;;;7.23;;
75616;SDS011;64200;55.426;37.758;2023-05-15T03:28:26;13.27;;;6.35;;
75616;SDS011;64200;55.426;37.758;2023-05-15T03:33:26;13.45;;;7.70;;
75616;SDS011;64200;55.426;37.758;2023-05-15T03:38:27;11.40;;;7.87;;
75616;SDS011;64200;55.426;37.758;2023-05-15T03:43:27;13.75;;;7.93;;
75616;SDS011;64200;55.426;37.758;2023-05-15T03:48:28;12.90;;;6.30;;
75616;SDS011;64200;55.426;37.758;2023-05-15T03:53:28;9.38;;;6.70;;
75616;SDS011;64200;55.426;37.758;2023-05-15T03:58:29;12.00;;;6.97;;
75616;SDS011;64200;55.426;37.758;2023-05-15T04:03:31;8.93;;;6.53;;
75616;SDS011;64200;55.426;37.758;2023-05-15T04:08:31;8.55;;;5.72;;
75616;SDS011;64200;55.426;37.758;2023-05-15T04:13:32;10.68;;;7.82;;
75616;SDS011;64200;55.426;37.758;2023-05-15T04:18:33;8.88;;;6.60;;
75616;SDS011;64200;55.426;37.758;2023-05-15T04:23:33;11.73;;;6.67;;
75616;SDS011;64200;55.426;37.758;2023-05-15T04:28:34;9.77;;;5.73;;
75616;SDS011;64200;55.426;37.758;2023-05-15T04:33:34;6.90;;;5.38;;
75616;SDS011;64200;55.426;37.758;2023-05-15T04:38:35;11.37;;;5.50;;
75616;SDS011;64200;55.426;37.758;2023-05-15T04:43:36;7.25;;;5.18;;
75616;SDS011;64200;55.426;37.758;2023-05-15T04:48:36;6.00;;;4.60;;
75616;SDS011;64200;55.426;37.758;2023-05-15T04:53:37;7.00;;;4.10;;
75616;SDS011;64200;55.426;37.758;2023-05-15T04:58:38;5.28;;;4.68;;
75616;SDS011;64200;55.426;37.758;2023-05-15T05:03:38;7.80;;;4.30;;
75616;SDS011;64200;55.426;37.758;2023-05-15T05:08:42;7.28;;;4.30;;
75616;SDS011;64200;55.426;37.758;2023-05-15T05:13:43;5.27;;;3.83;;
75616;SDS011;64200;55.426;37.758;2023-05-15T05:18:43;3.90;;;3.20;;
75616;SDS011;64200;55.426;37.758;2023-05-15T05:23:44;4.40;;;3.05;;
75616;SDS011;64200;55.426;37.758;2023-05-15T05:28:46;6.03;;;2.88;;
75616;SDS011;64200;55.426;37.758;2023-05-15T05:33:47;5.45;;;2.10;;
75616;SDS011;64200;55.426;37.758;2023-05-15T05:38:51;3.03;;;2.05;;
75616;SDS011;64200;55.426;37.758;2023-05-15T05:43:52;3.13;;;2.40;;
75616;SDS011;64200;55.426;37.758;2023-05-15T05:48:52;5.23;;;2.40;;
75616;SDS011;64200;55.426;37.758;2023-05-15T05:53:53;5.43;;;2.20;;
75616;SDS011;64200;55.426;37.758;2023-05-15T05:58:53;3.13;;;2.10;;
75616;SDS011;64200;55.426;37.758;2023-05-15T06:03:55;6.95;;;2.80;;
75616;SDS011;64200;55.426;37.758;2023-05-15T06:08:56;5.25;;;2.83;;
75616;SDS011;64200;55.426;37.758;2023-05-15T06:13:56;6.57;;;2.00;;
75616;SDS011;64200;55.426;37.758;2023-05-15T06:18:57;3.15;;;1.48;;
75616;SDS011;64200;55.426;37.758;2023-05-15T06:23:57;4.83;;;1.33;;
75616;SDS011;64200;55.426;37.758;2023-05-15T06:28:58;2.28;;;1.45;;
75616;SDS011;64200;55.426;37.758;2023-05-15T06:33:59;2.80;;;1.40;;
75616;SDS011;64200;55.426;37.758;2023-05-15T06:38:59;5.03;;;1.58;;
75616;SDS011;64200;55.426;37.758;2023-05-15T06:44:00;5.17;;;1.03;;
75616;SDS011;64200;55.426;37.758;2023-05-15T06:49:00;3.92;;;1.13;;
75616;SDS011;64200;55.426;37.758;2023-05-15T06:54:01;3.55;;;1.30;;
75616;SDS011;64200;55.426;37.758;2023-05-15T06:59:02;4.88;;;1.58;;
75616;SDS011;64200;55.426;37.758;2023-05-15T07:04:02;2.83;;;0.98;;
75616;SDS011;64200;55.426;37.758;2023-05-15T07:09:03;3.38;;;0.85;;
75616;SDS011;64200;55.426;37.758;2023-05-15T07:14:04;2.67;;;0.97;;
75616;SDS011;64200;55.426;37.758;2023-05-15T07:19:07;1.15;;;0.80;;
75616;SDS011;64200;55.426;37.758;2023-05-15T07:24:08;2.17;;;0.88;;
75616;SDS011;64200;55.426;37.758;2023-05-15T07:29:08;1.67;;;0.93;;
75616;SDS011;64200;55.426;37.758;2023-05-15T07:34:10;3.03;;;1.00;;
75616;SDS011;64200;55.426;37.758;2023-05-15T07:39:10;1.75;;;1.20;;
75616;SDS011;64200;55.426;37.758;2023-05-15T07:44:11;1.13;;;0.90;;
75616;SDS011;64200;55.426;37.758;2023-05-15T07:49:12;1.20;;;0.68;;
75616;SDS011;64200;55.426;37.758;2023-05-15T07:54:12;2.33;;;0.90;;
75616;SDS011;64200;55.426;37.758;2023-05-15T07:59:13;2.10;;;0.90;;
75616;SDS011;64200;55.426;37.758;2023-05-15T08:04:14;2.20;;;1.30;;
75616;SDS011;64200;55.426;37.758;2023-05-15T08:09:15;4.10;;;1.60;;
75616;SDS011;64200;55.426;37.758;2023-05-15T08:14:15;3.10;;;2.03;;
75616;SDS011;64200;55.426;37.758;2023-05-15T08:19:16;1.93;;;1.63;;
75616;SDS011;64200;55.426;37.758;2023-05-15T08:24:16;1.60;;;0.70;;
75616;SDS011;64200;55.426;37.758;2023-05-15T08:29:17;2.90;;;0.97;;
75616;SDS011;64200;55.426;37.758;2023-05-15T08:34:17;1.50;;;1.13;;
75616;SDS011;64200;55.426;37.758;2023-05-15T08:39:18;2.00;;;1.35;;
75616;SDS011;64200;55.426;37.758;2023-05-15T08:44:18;8.25;;;1.70;;
75616;SDS011;64200;55.426;37.758;2023-05-15T08:54:40;1.30;;;0.90;;
75616;SDS011;64200;55.426;37.758;2023-05-15T08:59:42;10.07;;;4.65;;
75616;SDS011;64200;55.426;37.758;2023-05-15T09:04:42;6.68;;;2.90;;
75616;SDS011;64200;55.426;37.758;2023-05-15T09:09:43;1.50;;;0.90;;
75616;SDS011;64200;55.426;37.758;2023-05-15T09:14:44;16.17;;;9.00;;
75616;SDS011;64200;55.426;37.758;2023-05-15T09:19:45;19.30;;;9.38;;
75616;SDS011;64200;55.426;37.758;2023-05-15T09:24:46;2.28;;;0.73;;
75616;SDS011;64200;55.426;37.758;2023-05-15T09:29:47;2.17;;;0.77;;
75616;SDS011;64200;55.426;37.758;2023-05-15T09:34:50;4.00;;;1.42;;
75616;SDS011;64200;55.426;37.758;2023-05-15T09:39:50;1.67;;;1.10;;
75616;SDS011;64200;55.426;37.758;2023-05-15T09:44:51;2.67;;;0.80;;
75616;SDS011;64200;55.426;37.758;2023-05-15T09:49:51;3.00;;;1.25;;
75616;SDS011;64200;55.426;37.758;2023-05-15T09:54:52;2.00;;;1.00;;
75616;SDS011;64200;55.426;37.758;2023-05-15T09:59:53;1.40;;;0.85;;
75616;SDS011;64200;55.426;37.758;2023-05-15T10:04:54;1.67;;;0.68;;
75616;SDS011;64200;55.426;37.758;2023-05-15T10:09:58;2.90;;;0.82;;
75616;SDS011;64200;55.426;37.758;2023-05-15T10:15:00;1.70;;;0.77;;
75616;SDS011;64200;55.426;37.758;2023-05-15T10:20:02;3.97;;;1.10;;
75616;SDS011;64200;55.426;37.758;2023-05-15T10:30:35;1.15;;;0.57;;
75616;SDS011;64200;55.426;37.758;2023-05-15T10:35:37;1.67;;;1.00;;
75616;SDS011;64200;55.426;37.758;2023-05-15T10:40:39;2.47;;;0.73;;
75616;SDS011;64200;55.426;37.758;2023-05-15T10:45:40;1.65;;;0.70;;
75616;SDS011;64200;55.426;37.758;2023-05-15T10:55:43;2.40;;;1.10;;
75616;SDS011;64200;55.426;37.758;2023-05-15T11:00:45;1.75;;;0.80;;
75616;SDS011;64200;55.426;37.758;2023-05-15T11:11:51;3.42;;;1.00;;
75616;SDS011;64200;55.426;37.758;2023-05-15T11:21:58;2.03;;;1.10;;
75616;SDS011;64200;55.426;37.758;2023-05-15T11:27:21;1.67;;;0.95;;
75616;SDS011;64200;55.426;37.758;2023-05-15T11:37:46;2.00;;;1.23;;
75616;SDS011;64200;55.426;37.758;2023-05-15T11:42:59;2.88;;;1.05;;
75616;SDS011;64200;55.426;37.758;2023-05-15T11:48:05;3.50;;;1.00;;
75616;SDS011;64200;55.426;37.758;2023-05-15T11:53:08;1.38;;;1.00;;
75616;SDS011;64200;55.426;37.758;2023-05-15T11:58:10;1.23;;;0.80;;
75616;SDS011;64200;55.426;37.758;2023-05-15T12:03:26;2.22;;;1.40;;
75616;SDS011;64200;55.426;37.758;2023-05-15T12:08:31;2.25;;;0.80;;
75616;SDS011;64200;55.426;37.758;2023-05-15T12:13:33;1.38;;;0.80;;
75616;SDS011;64200;55.426;37.758;2023-05-15T12:18:34;1.20;;;0.73;;
75616;SDS011;64200;55.426;37.758;2023-05-15T12:23:35;1.83;;;1.30;;
75616;SDS011;64200;55.426;37.758;2023-05-15T12:28:35;3.67;;;0.95;;
75616;SDS011;64200;55.426;37.758;2023-05-15T12:33:37;2.55;;;0.77;;
75616;SDS011;64200;55.426;37.758;2023-05-15T12:38:38;1.70;;;1.10;;
75616;SDS011;64200;55.426;37.758;2023-05-15T12:43:39;2.90;;;1.23;;
75616;SDS011;64200;55.426;37.758;2023-05-15T12:48:40;1.45;;;0.90;;
75616;SDS011;64200;55.426;37.758;2023-05-15T12:53:41;1.88;;;0.90;;
75616;SDS011;64200;55.426;37.758;2023-05-15T12:58:41;2.20;;;1.00;;
75616;SDS011;64200;55.426;37.758;2023-05-15T13:03:42;1.33;;;0.73;;
75616;SDS011;64200;55.426;37.758;2023-05-15T13:08:43;1.38;;;0.88;;
75616;SDS011;64200;55.426;37.758;2023-05-15T13:13:47;1.00;;;0.70;;
75616;SDS011;64200;55.426;37.758;2023-05-15T13:18:49;1.88;;;0.70;;
75616;SDS011;64200;55.426;37.758;2023-05-15T13:23:50;1.67;;;0.90;;
75616;SDS011;64200;55.426;37.758;2023-05-15T13:28:51;4.30;;;0.90;;
75616;SDS011;64200;55.426;37.758;2023-05-15T13:33:52;3.92;;;0.75;;
75616;SDS011;64200;55.426;37.758;2023-05-15T13:38:52;1.03;;;0.93;;
75616;SDS011;64200;55.426;37.758;2023-05-15T13:43:53;2.10;;;1.20;;
75616;SDS011;64200;55.426;37.758;2023-05-15T13:48:53;1.20;;;1.00;;
75616;SDS011;64200;55.426;37.758;2023-05-15T13:53:54;2.25;;;0.80;;
75616;SDS011;64200;55.426;37.758;2023-05-15T13:58:54;1.63;;;0.77;;
75616;SDS011;64200;55.426;37.758;2023-05-15T14:03:55;1.65;;;0.80;;
75616;SDS011;64200;55.426;37.758;2023-05-15T14:08:55;1.48;;;1.00;;
75616;SDS011;64200;55.426;37.758;2023-05-15T14:13:56;2.72;;;0.95;;
75616;SDS011;64200;55.426;37.758;2023-05-15T14:18:56;2.70;;;0.90;;
75616;SDS011;64200;55.426;37.758;2023-05-15T14:23:57;3.15;;;0.82;;
75616;SDS011;64200;55.426;37.758;2023-05-15T14:28:57;2.03;;;0.90;;
75616;SDS011;64200;55.426;37.758;2023-05-15T14:33:58;1.48;;;0.73;;
75616;SDS011;64200;55.426;37.758;2023-05-15T14:38:59;1.95;;;0.70;;
75616;SDS011;64200;55.426;37.758;2023-05-15T14:44:00;3.77;;;1.10;;
75616;SDS011;64200;55.426;37.758;2023-05-15T14:49:00;2.35;;;1.17;;
75616;SDS011;64200;55.426;37.758;2023-05-15T14:54:01;3.15;;;0.90;;
75616;SDS011;64200;55.426;37.758;2023-05-15T14:59:03;3.05;;;0.95;;
75616;SDS011;64200;55.426;37.758;2023-05-15T15:04:03;1.90;;;1.00;;
75616;SDS011;64200;55.426;37.758;2023-05-15T15:09:05;4.68;;;1.80;;
75616;SDS011;64200;55.426;37.758;2023-05-15T15:14:05;3.70;;;1.20;;
75616;SDS011;64200;55.426;37.758;2023-05-15T15:19:06;1.80;;;0.82;;
75616;SDS011;64200;55.426;37.758;2023-05-15T15:24:06;2.07;;;0.80;;
75616;SDS011;64200;55.426;37.758;2023-05-15T15:29:07;2.80;;;0.80;;
75616;SDS011;64200;55.426;37.758;2023-05-15T15:34:07;3.73;;;1.00;;
75616;SDS011;64200;55.426;37.758;2023-05-15T15:39:09;2.80;;;1.00;;
75616;SDS011;64200;55.426;37.758;2023-05-15T15:44:11;4.03;;;1.00;;
75616;SDS011;64200;55.426;37.758;2023-05-15T15:49:12;3.93;;;1.67;;
75616;SDS011;64200;55.426;37.758;2023-05-15T15:54:12;2.33;;;0.90;;
75616;SDS011;64200;55.426;37.758;2023-05-15T15:59:13;3.17;;;0.80;;
75616;SDS011;64200;55.426;37.758;2023-05-15T16:04:14;1.23;;;0.95;;
75616;SDS011;64200;55.426;37.758;2023-05-15T16:09:15;1.63;;;0.82;;
75616;SDS011;64200;55.426;37.758;2023-05-15T16:14:19;5.47;;;0.95;;
75616;SDS011;64200;55.426;37.758;2023-05-15T16:19:20;2.63;;;1.20;;
75616;SDS011;64200;55.426;37.758;2023-05-15T16:24:20;2.70;;;1.00;;
75616;SDS011;64200;55.426;37.758;2023-05-15T16:29:21;3.67;;;1.20;;
75616;SDS011;64200;55.426;37.758;2023-05-15T16:34:22;1.95;;;0.80;;
75616;SDS011;64200;55.426;37.758;2023-05-15T16:39:24;6.40;;;1.75;;
75616;SDS011;64200;55.426;37.758;2023-05-15T16:44:25;3.42;;;1.00;;
75616;SDS011;64200;55.426;37.758;2023-05-15T16:49:25;3.30;;;0.98;;
75616;SDS011;64200;55.426;37.758;2023-05-15T16:54:26;4.38;;;1.30;;
75616;SDS011;64200;55.426;37.758;2023-05-15T16:59:27;3.33;;;0.70;;
75616;SDS011;64200;55.426;37.758;2023-05-15T17:04:28;2.28;;;0.88;;
75616;SDS011;64200;55.426;37.758;2023-05-15T17:09:30;2.75;;;0.90;;
75616;SDS011;64200;55.426;37.758;2023-05-15T17:14:31;5.15;;;2.05;;
75616;SDS011;64200;55.426;37.758;2023-05-15T17:19:32;6.65;;;3.47;;
75616;SDS011;64200;55.426;37.758;2023-05-15T17:24:36;6.03;;;2.30;;
75616;SDS011;64200;55.426;37.758;2023-05-15T17:29:36;8.70;;;3.73;;
75616;SDS011;64200;55.426;37.758;2023-05-15T17:34:37;4.07;;;1.42;;
75616;SDS011;64200;55.426;37.758;2023-05-15T17:39:37;3.50;;;1.95;;
75616;SDS011;64200;55.426;37.758;2023-05-15T17:44:38;2.40;;;0.90;;
75616;SDS011;64200;55.426;37.758;2023-05-15T17:49:39;2.38;;;0.80;;
75616;SDS011;64200;55.426;37.758;2023-05-15T17:54:39;12.40;;;6.40;;
75616;SDS011;64200;55.426;37.758;2023-05-15T17:59:40;3.78;;;2.10;;
75616;SDS011;64200;55.426;37.758;2023-05-15T18:04:40;5.38;;;1.80;;
75616;SDS011;64200;55.426;37.758;2023-05-15T18:09:41;3.37;;;1.40;;
75616;SDS011;64200;55.426;37.758;2023-05-15T18:14:41;5.68;;;2.13;;
75616;SDS011;64200;55.426;37.758;2023-05-15T18:19:42;5.72;;;2.60;;
75616;SDS011;64200;55.426;37.758;2023-05-15T18:24:43;4.35;;;1.98;;
75616;SDS011;64200;55.426;37.758;2023-05-15T18:29:44;1.98;;;1.20;;
75616;SDS011;64200;55.426;37.758;2023-05-15T18:34:45;5.72;;;2.05;;
75616;SDS011;64200;55.426;37.758;2023-05-15T18:39:46;6.03;;;1.50;;
75616;SDS011;64200;55.426;37.758;2023-05-15T18:44:47;3.22;;;1.70;;
75616;SDS011;64200;55.426;37.758;2023-05-15T18:49:47;4.18;;;1.73;;
75616;SDS011;64200;55.426;37.758;2023-05-15T18:54:48;3.38;;;1.60;;
75616;SDS011;64200;55.426;37.758;2023-05-15T18:59:48;7.20;;;2.53;;
75616;SDS011;64200;55.426;37.758;2023-05-15T19:04:49;9.25;;;3.47;;
75616;SDS011;64200;55.426;37.758;2023-05-15T19:09:49;4.40;;;2.10;;
75616;SDS011;64200;55.426;37.758;2023-05-15T19:14:50;6.67;;;2.47;;
75616;SDS011;64200;55.426;37.758;2023-05-15T19:19:50;6.65;;;2.83;;
75616;SDS011;64200;55.426;37.758;2023-05-15T19:24:51;7.38;;;3.72;;
75616;SDS011;64200;55.426;37.758;2023-05-15T19:29:52;5.63;;;3.17;;
75616;SDS011;64200;55.426;37.758;2023-05-15T19:34:52;6.43;;;3.13;;
75616;SDS011;64200;55.426;37.758;2023-05-15T19:39:53;8.50;;;2.80;;
75616;SDS011;64200;55.426;37.758;2023-05-15T19:44:53;9.43;;;4.78;;
75616;SDS011;64200;55.426;37.758;2023-05-15T19:49:54;12.88;;;5.20;;
75616;SDS011;64200;55.426;37.758;2023-05-15T19:54:54;12.35;;;5.47;;
75616;SDS011;64200;55.426;37.758;2023-05-15T19:59:55;11.50;;;6.50;;
75616;SDS011;64200;55.426;37.758;2023-05-15T20:04:56;14.38;;;4.85;;
75616;SDS011;64200;55.426;37.758;2023-05-15T20:09:56;8.03;;;3.90;;
75616;SDS011;64200;55.426;37.758;2023-05-15T20:14:57;6.35;;;2.78;;
75616;SDS011;64200;55.426;37.758;2023-05-15T20:19:57;5.57;;;3.40;;
75616;SDS011;64200;55.426;37.758;2023-05-15T20:24:58;16.25;;;6.20;;
75616;SDS011;64200;55.426;37.758;2023-05-15T20:29:59;5.93;;;3.43;;
75616;SDS011;64200;55.426;37.758;2023-05-15T20:50:34;5.05;;;3.03;;
75616;SDS011;64200;55.426;37.758;2023-05-15T20:55:35;10.77;;;3.30;;
75616;SDS011;64200;55.426;37.758;2023-05-15T21:00:36;8.27;;;3.72;;
75616;SDS011;64200;55.426;37.758;2023-05-15T21:05:37;8.13;;;3.40;;
75616;SDS011;64200;55.426;37.758;2023-05-15T21:10:37;12.67;;;5.63;;
75616;SDS011;64200;55.426;37.758;2023-05-15T21:15:38;15.70;;;4.75;;
75616;SDS011;64200;55.426;37.758;2023-05-15T21:20:38;14.30;;;4.53;;
75616;SDS011;64200;55.426;37.758;2023-05-15T21:25:41;13.63;;;5.00;;
75616;SDS011;64200;55.426;37.758;2023-05-15T21:30:41;12.95;;;6.75;;
75616;SDS011;64200;55.426;37.758;2023-05-15T21:35:42;14.03;;;6.23;;
75616;SDS011;64200;55.426;37.758;2023-05-15T21:40:44;16.33;;;5.57;;
75616;SDS011;64200;55.426;37.758;2023-05-15T21:45:45;18.35;;;7.55;;
75616;SDS011;64200;55.426;37.758;2023-05-15T21:50:46;19.23;;;6.30;;
75616;SDS011;64200;55.426;37.758;2023-05-15T21:55:46;21.33;;;8.33;;
75616;SDS011;64200;55.426;37.758;2023-05-15T22:00:50;15.68;;;8.15;;
75616;SDS011;64200;55.426;37.758;2023-05-15T22:05:51;25.05;;;8.35;;
75616;SDS011;64200;55.426;37.758;2023-05-15T22:10:52;24.42;;;8.75;;
75616;SDS011;64200;55.426;37.758;2023-05-15T22:15:52;23.42;;;9.30;;
75616;SDS011;64200;55.426;37.758;2023-05-15T22:20:53;22.60;;;7.40;;
75616;SDS011;64200;55.426;37.758;2023-05-15T22:25:54;20.85;;;7.90;;
75616;SDS011;64200;55.426;37.758;2023-05-15T22:30:55;21.75;;;7.97;;
75616;SDS011;64200;55.426;37.758;2023-05-15T22:35:55;22.92;;;9.05;;
75616;SDS011;64200;55.426;37.758;2023-05-15T22:40:56;30.90;;;9.30;;
75616;SDS011;64200;55.426;37.758;2023-05-15T22:45:56;24.73;;;12.17;;
75616;SDS011;64200;55.426;37.758;2023-05-15T22:50:57;27.02;;;10.52;;
75616;SDS011;64200;55.426;37.758;2023-05-15T22:55:57;24.03;;;8.27;;
75616;SDS011;64200;55.426;37.758;2023-05-15T23:00:58;14.47;;;7.10;;
75616;SDS011;64200;55.426;37.758;2023-05-15T23:05:58;19.95;;;8.27;;
75616;SDS011;64200;55.426;37.758;2023-05-15T23:10:59;13.60;;;7.17;;
75616;SDS011;64200;55.426;37.758;2023-05-15T23:16:00;12.15;;;5.60;;
75616;SDS011;64200;55.426;37.758;2023-05-15T23:21:00;16.47;;;6.17;;
75616;SDS011;64200;55.426;37.758;2023-05-15T23:26:01;13.82;;;6.03;;
75616;SDS011;64200;55.426;37.758;2023-05-15T23:31:02;15.40;;;5.43;;
75616;SDS011;64200;55.426;37.758;2023-05-15T23:36:02;8.98;;;5.28;;
75616;SDS011;64200;55.426;37.758;2023-05-15T23:41:03;11.63;;;4.53;;
75616;SDS011;64200;55.426;37.758;2023-05-15T23:46:04;10.70;;;4.38;;
75616;SDS011;64200;55.426;37.758;2023-05-15T23:51:04;9.75;;;4.60;;
75616;SDS011;64200;55.426;37.758;2023-05-15T23:56:05;17.45;;;5.68;;
